createdAt,value
2018-12-23T00:00:02.628Z,101123.39
2018-12-23T00:02:33.625Z,101117.65
2018-12-23T00:05:11.427Z,101116.95
2018-12-23T00:07:37.058Z,101119.58
2018-12-23T00:10:07.637Z,101125.69
2018-12-23T00:12:40.470Z,101124.18
2018-12-23T00:15:11.464Z,101127.58
2018-12-23T00:17:42.201Z,101126.53
2018-12-23T00:20:12.687Z,101129.80
2018-12-23T00:22:42.778Z,101132.28
2018-12-23T00:25:13.754Z,101125.92
2018-12-23T00:27:43.823Z,101127.17
2018-12-23T00:30:14.765Z,101120.88
2018-12-23T00:32:44.876Z,101128.23
2018-12-23T00:35:20.339Z,101131.20
2018-12-23T00:37:47.223Z,101127.33
2018-12-23T00:40:18.158Z,101135.39
2018-12-23T00:42:48.214Z,101139.38
2018-12-23T00:45:18.453Z,101148.82
2018-12-23T00:47:49.292Z,101148.87
2018-12-23T00:50:19.463Z,101148.87
2018-12-23T00:52:49.731Z,101152.75
2018-12-23T00:55:19.889Z,101157.41
2018-12-23T00:57:50.440Z,101156.62
2018-12-23T01:00:21.162Z,101155.02
2018-12-23T01:02:51.344Z,101159.52
2018-12-23T01:05:28.583Z,101156.84
2018-12-23T01:07:53.721Z,101154.59
2018-12-23T01:10:25.051Z,101154.96
2018-12-23T01:12:55.850Z,101158.60
2018-12-23T01:15:26.484Z,101162.10
2018-12-23T01:17:57.241Z,101158.42
2018-12-23T01:20:27.166Z,101165.97
2018-12-23T01:22:57.659Z,101167.97
2018-12-23T01:25:27.835Z,101163.95
2018-12-23T01:27:57.901Z,101164.97
2018-12-23T01:30:28.626Z,101163.30
2018-12-23T01:32:59.463Z,101167.97
2018-12-23T01:35:37.047Z,101173.25
2018-12-23T01:38:02.749Z,101176.20
2018-12-23T01:40:33.578Z,101173.11
2018-12-23T01:43:03.773Z,101170.41
2018-12-23T01:45:33.874Z,101163.50
2018-12-23T01:48:04.617Z,101172.80
2018-12-23T01:50:35.333Z,101174.14
2018-12-23T01:53:05.431Z,101172.80
2018-12-23T01:55:35.532Z,101174.73
2018-12-23T01:58:06.393Z,101181.83
2018-12-23T02:00:37.721Z,101180.03
2018-12-23T02:03:07.905Z,101184.50
2018-12-23T02:05:45.878Z,101185.05
2018-12-23T02:08:10.475Z,101181.05
2018-12-23T02:10:40.608Z,101171.52
2018-12-23T02:13:10.659Z,101169.52
2018-12-23T02:15:40.799Z,101166.81
2018-12-23T02:18:11.423Z,101172.25
2018-12-23T02:20:42.419Z,101176.85
2018-12-23T02:23:13.021Z,101181.05
2018-12-23T02:25:43.874Z,101180.41
2018-12-23T02:28:14.129Z,101184.91
2018-12-23T02:30:44.153Z,101178.74
2018-12-23T02:33:14.298Z,101177.17
2018-12-23T02:35:44.515Z,101166.63
2018-12-23T02:38:14.568Z,101172.30
2018-12-23T02:40:45.534Z,101167.50
2018-12-23T02:43:15.754Z,101170.53
2018-12-23T02:45:45.911Z,101165.37
2018-12-23T02:48:16.738Z,101162.70
2018-12-23T02:50:47.177Z,101167.95
2018-12-23T02:53:17.756Z,101165.94
2018-12-23T02:55:48.009Z,101161.46
2018-12-23T02:58:18.785Z,101166.40
2018-12-23T03:00:49.926Z,101160.81
2018-12-23T03:03:20.736Z,101165.94
2018-12-23T03:05:50.858Z,101160.08
2018-12-23T03:08:21.366Z,101158.56
2018-12-23T03:10:51.537Z,101162.90
2018-12-23T03:13:22.484Z,101165.84
2018-12-23T03:15:52.516Z,101172.94
2018-12-23T03:18:24.265Z,101170.49
2018-12-23T03:20:55.008Z,101174.04
2018-12-23T03:23:25.601Z,101171.38
2018-12-23T03:25:56.376Z,101163.03
2018-12-23T03:28:27.669Z,101158.06
2018-12-23T03:30:57.945Z,101167.27
2018-12-23T03:33:27.983Z,101168.55
2018-12-23T03:35:58.671Z,101168.61
2018-12-23T03:38:28.940Z,101174.45
2018-12-23T03:41:00.286Z,101170.81
2018-12-23T03:43:30.336Z,101170.77
2018-12-23T03:46:00.342Z,101176.35
2018-12-23T03:48:30.469Z,101178.38
2018-12-23T03:51:01.407Z,101174.14
2018-12-23T03:53:31.441Z,101174.45
2018-12-23T03:56:01.458Z,101178.09
2018-12-23T03:58:32.900Z,101180.44
2018-12-23T04:01:03.638Z,101175.52
2018-12-23T04:03:33.723Z,101178.09
2018-12-23T04:06:05.202Z,101178.92
2018-12-23T04:08:35.423Z,101180.35
2018-12-23T04:11:05.620Z,101175.97
2018-12-23T04:13:36.792Z,101173.20
2018-12-23T04:16:07.737Z,101175.09
2018-12-23T04:18:37.855Z,101169.94
2018-12-23T04:21:08.511Z,101177.48
2018-12-23T04:23:38.579Z,101176.55
2018-12-23T04:26:08.665Z,101172.50
2018-12-23T04:28:39.510Z,101179.42
2018-12-23T04:31:10.213Z,101173.85
2018-12-23T04:33:40.416Z,101171.48
2018-12-23T04:36:11.284Z,101170.57
2018-12-23T04:38:42.158Z,101168.81
2018-12-23T04:41:12.384Z,101172.41
2018-12-23T04:43:43.187Z,101169.52
2018-12-23T04:46:13.291Z,101169.59
2018-12-23T04:48:43.608Z,101163.33
2018-12-23T04:51:13.652Z,101171.44
2018-12-23T04:53:45.119Z,101165.77
2018-12-23T04:56:15.877Z,101156.38
2018-12-23T04:58:46.979Z,101163.38
2018-12-23T05:01:17.126Z,101167.91
2018-12-23T05:03:47.816Z,101167.77
2018-12-23T05:06:18.072Z,101171.44
2018-12-23T05:08:48.273Z,101181.72
2018-12-23T05:11:18.421Z,101173.20
2018-12-23T05:13:48.601Z,101172.55
2018-12-23T05:16:18.726Z,101178.25
2018-12-23T05:18:48.833Z,101178.50
2018-12-23T05:21:19.395Z,101167.06
2018-12-23T05:23:49.447Z,101162.53
2018-12-23T05:26:19.587Z,101164.28
2018-12-23T05:28:50.223Z,101163.45
2018-12-23T05:31:20.644Z,101172.12
2018-12-23T05:33:50.798Z,101169.13
2018-12-23T05:36:22.254Z,101166.91
2018-12-23T05:38:52.388Z,101158.44
2018-12-23T05:41:24.556Z,101156.67
2018-12-23T05:43:54.750Z,101158.50
2018-12-23T05:46:24.715Z,101157.05
2018-12-23T05:48:55.376Z,101163.83
2018-12-23T05:51:25.457Z,101170.38
2018-12-23T05:53:55.622Z,101173.45
2018-12-23T05:56:25.627Z,101169.64
2018-12-23T05:58:56.303Z,101169.17
2018-12-23T06:01:26.421Z,101168.63
2018-12-23T06:03:57.278Z,101164.84
2018-12-23T06:06:27.915Z,101175.33
2018-12-23T06:08:58.626Z,101171.05
2018-12-23T06:11:29.507Z,101176.46
2018-12-23T06:14:00.293Z,101172.95
2018-12-23T06:16:31.499Z,101168.47
2018-12-23T06:19:02.543Z,101177.34
2018-12-23T06:21:34.259Z,101178.48
2018-12-23T06:24:04.523Z,101177.39
2018-12-23T06:26:35.403Z,101179.41
2018-12-23T06:29:06.298Z,101186.52
2018-12-23T06:31:36.638Z,101189.98
2018-12-23T06:34:06.949Z,101191.48
2018-12-23T06:36:38.118Z,101195.14
2018-12-23T06:39:08.579Z,101199.29
2018-12-23T06:41:38.675Z,101194.72
2018-12-23T06:44:08.825Z,101196.37
2018-12-23T06:46:39.429Z,101203.14
2018-12-23T06:49:10.373Z,101193.29
2018-12-23T06:51:40.601Z,101198.13
2018-12-23T06:54:10.673Z,101206.61
2018-12-23T06:56:41.715Z,101199.84
2018-12-23T06:59:12.310Z,101202.84
2018-12-23T07:01:42.620Z,101203.30
2018-12-23T07:04:12.750Z,101203.80
2018-12-23T07:06:43.343Z,101204.12
2018-12-23T07:09:14.128Z,101208.41
2018-12-23T07:11:44.122Z,101209.23
2018-12-23T07:14:14.305Z,101208.33
2018-12-23T07:16:44.554Z,101207.98
2018-12-23T07:19:14.718Z,101209.61
2018-12-23T07:21:44.744Z,101205.05
2018-12-23T07:24:15.072Z,101208.33
2018-12-23T07:26:45.216Z,101207.26
2018-12-23T07:29:15.407Z,101204.83
2018-12-23T07:31:46.675Z,101210.77
2018-12-23T07:34:17.178Z,101204.12
2018-12-23T07:36:49.667Z,101200.85
2018-12-23T07:39:20.158Z,101195.75
2018-12-23T07:41:50.339Z,101188.50
2018-12-23T07:44:21.469Z,101192.20
2018-12-23T07:46:51.616Z,101193.30
2018-12-23T07:49:22.515Z,101198.22
2018-12-23T07:51:52.583Z,101200.08
2018-12-23T07:54:22.813Z,101200.91
2018-12-23T07:56:52.829Z,101205.42
2018-12-23T07:59:22.902Z,101210.63
2018-12-23T08:01:53.678Z,101214.13
2018-12-23T08:04:25.262Z,101207.98
2018-12-23T08:06:55.512Z,101208.91
2018-12-23T08:09:26.642Z,101208.05
2018-12-23T08:11:58.051Z,101217.67
2018-12-23T08:14:28.089Z,101213.56
2018-12-23T08:16:59.132Z,101212.41
2018-12-23T08:19:29.221Z,101214.48
2018-12-23T08:22:00.014Z,101206.68
2018-12-23T08:24:30.011Z,101211.63
2018-12-23T08:27:00.798Z,101204.16
2018-12-23T08:29:31.641Z,101201.53
2018-12-23T08:32:01.754Z,101204.94
2018-12-23T08:34:31.970Z,101203.81
2018-12-23T08:37:01.966Z,101199.41
2018-12-23T08:39:32.135Z,101195.33
2018-12-23T08:42:02.179Z,101191.22
2018-12-23T08:44:32.361Z,101188.27
2018-12-23T08:47:02.868Z,101187.66
2018-12-23T08:49:33.551Z,101186.16
2018-12-23T08:52:03.658Z,101190.29
2018-12-23T08:54:33.991Z,101196.34
2018-12-23T08:57:04.123Z,101192.87
2018-12-23T08:59:34.366Z,101194.00
2018-12-23T09:02:04.567Z,101187.92
2018-12-23T09:04:34.751Z,101186.63
2018-12-23T09:07:05.722Z,101185.84
2018-12-23T09:09:36.096Z,101183.36
2018-12-23T09:12:06.198Z,101180.15
2018-12-23T09:14:36.348Z,101187.54
2018-12-23T09:17:06.542Z,101186.77
2018-12-23T09:19:37.300Z,101185.02
2018-12-23T09:22:07.325Z,101179.13
2018-12-23T09:24:38.712Z,101182.37
2018-12-23T09:27:08.775Z,101180.67
2018-12-23T09:29:39.021Z,101170.60
2018-12-23T09:32:09.149Z,101168.38
2018-12-23T09:34:40.040Z,101166.82
2018-12-23T09:37:10.050Z,101169.41
2018-12-23T09:39:41.203Z,101176.13
2018-12-23T09:42:11.115Z,101173.13
2018-12-23T09:44:41.218Z,101179.48
2018-12-23T09:47:12.053Z,101180.14
2018-12-23T09:49:42.590Z,101178.75
2018-12-23T09:52:12.670Z,101173.89
2018-12-23T09:54:42.660Z,101176.95
2018-12-23T09:57:14.233Z,101184.50
2018-12-23T09:59:44.467Z,101180.30
2018-12-23T10:02:15.326Z,101168.22
2018-12-23T10:04:46.081Z,101173.80
2018-12-23T10:07:16.234Z,101165.73
2018-12-23T10:09:46.555Z,101162.57
2018-12-23T10:12:17.395Z,101160.16
2018-12-23T10:14:47.705Z,101160.92
2018-12-23T10:17:17.783Z,101145.52
2018-12-23T10:19:47.982Z,101149.88
2018-12-23T10:22:18.964Z,101152.45
2018-12-23T10:24:49.054Z,101151.52
2018-12-23T10:27:19.186Z,101142.42
2018-12-23T10:29:50.414Z,101146.18
2018-12-23T10:32:20.528Z,101145.14
2018-12-23T10:34:51.356Z,101132.82
2018-12-23T10:37:22.607Z,101130.23
2018-12-23T10:39:52.744Z,101133.25
2018-12-23T10:42:22.819Z,101133.30
2018-12-23T10:44:53.011Z,101128.43
2018-12-23T10:47:23.802Z,101127.59
2018-12-23T10:49:54.046Z,101128.30
2018-12-23T10:52:24.001Z,101126.71
2018-12-23T10:54:55.260Z,101132.72
2018-12-23T10:57:25.881Z,101120.84
2018-12-23T10:59:56.210Z,101111.92
2018-12-23T11:02:26.302Z,101104.93
2018-12-23T11:04:57.278Z,101099.20
2018-12-23T11:07:27.911Z,101092.57
2018-12-23T11:10:01.964Z,101087.19
2018-12-23T11:12:30.519Z,101081.94
2018-12-23T11:15:00.640Z,101084.00
2018-12-23T11:17:30.666Z,101083.01
2018-12-23T11:20:01.909Z,101072.20
2018-12-23T11:22:32.661Z,101070.62
2018-12-23T11:25:03.398Z,101069.48
2018-12-23T11:27:34.613Z,101065.20
2018-12-23T11:30:05.456Z,101068.66
2018-12-23T11:32:36.014Z,101068.89
2018-12-23T11:35:06.812Z,101056.77
2018-12-23T11:37:36.780Z,101063.89
2018-12-23T11:40:08.386Z,101055.46
2018-12-23T11:42:38.454Z,101062.70
2018-12-23T11:45:09.591Z,101068.28
2018-12-23T11:47:40.286Z,101057.86
2018-12-23T11:50:10.385Z,101051.47
2018-12-23T11:52:40.425Z,101049.70
2018-12-23T11:55:10.496Z,101046.11
2018-12-23T11:57:41.246Z,101042.99
2018-12-23T12:00:11.336Z,101045.42
2018-12-23T12:02:41.403Z,101039.70
2018-12-23T12:05:11.711Z,101033.14
2018-12-23T12:07:42.465Z,101035.83
2018-12-23T12:10:12.675Z,101031.25
2018-12-23T12:12:43.377Z,101036.29
2018-12-23T12:15:14.166Z,101033.00
2018-12-23T12:17:44.686Z,101027.25
2018-12-23T12:20:15.634Z,101024.44
2018-12-23T14:17:47.897Z,100946.97
2018-12-23T18:07:03.912Z,100753.59
2018-12-23T18:22:02.066Z,100736.67
2018-12-23T18:25:44.899Z,100736.16
2018-12-23T18:28:35.306Z,100727.25
2018-12-23T20:40:14.876Z,100706.27
2018-12-23T20:47:17.218Z,100710.91
2018-12-23T20:50:26.688Z,100712.84
2018-12-23T20:53:56.049Z,100724.77
2018-12-23T20:57:15.523Z,100715.75
2018-12-23T21:00:46.972Z,100716.80
2018-12-23T21:04:01.995Z,100711.02
2018-12-23T21:07:35.391Z,100708.25
2018-12-23T21:11:02.141Z,100703.04
2018-12-23T21:14:43.991Z,100706.19
2018-12-23T21:18:03.265Z,100709.43
2018-12-23T21:21:42.738Z,100701.30
2018-12-23T21:25:11.288Z,100714.83
2018-12-23T21:28:33.323Z,100723.79
2018-12-23T21:32:08.952Z,100727.49
2018-12-23T21:35:33.009Z,100724.55
2018-12-23T21:39:08.419Z,100728.56
2018-12-23T21:42:42.245Z,100714.73
2018-12-23T21:46:00.062Z,100711.42
2018-12-23T21:49:38.976Z,100724.41
2018-12-23T21:53:03.446Z,100739.60
2018-12-23T21:56:26.158Z,100736.60
2018-12-23T21:59:32.898Z,100737.53
2018-12-23T22:02:49.061Z,100738.20
2018-12-23T22:06:05.037Z,100744.03
2018-12-23T22:09:20.645Z,100743.30
2018-12-23T22:12:46.706Z,100739.86
2018-12-23T22:15:18.239Z,100736.25
2018-12-23T22:17:49.771Z,100738.82
2018-12-23T22:20:21.238Z,100731.09
2018-12-23T22:22:52.756Z,100731.86
2018-12-23T22:25:24.178Z,100729.38
2018-12-23T22:27:55.582Z,100727.69
2018-12-23T22:30:27.093Z,100727.23
2018-12-23T22:32:59.418Z,100734.00
2018-12-23T22:35:31.292Z,100733.62
2018-12-23T22:38:02.773Z,100734.33
2018-12-23T22:40:35.401Z,100740.58
2018-12-23T22:43:06.809Z,100736.81
2018-12-23T22:45:38.277Z,100741.41
2018-12-23T22:48:09.706Z,100753.91
2018-12-23T22:50:41.215Z,100760.45
2018-12-23T22:53:12.799Z,100761.49
2018-12-23T22:55:44.529Z,100755.30
2018-12-23T22:58:15.966Z,100759.12
2018-12-23T23:00:47.429Z,100763.89
2018-12-23T23:03:18.851Z,100765.72
2018-12-23T23:05:50.346Z,100761.06
2018-12-23T23:08:22.075Z,100768.03
2018-12-23T23:10:53.504Z,100768.44
2018-12-23T23:13:25.216Z,100772.63
2018-12-23T23:15:56.696Z,100775.52
2018-12-23T23:18:28.108Z,100771.94
2018-12-23T23:20:59.525Z,100774.58
2018-12-23T23:23:31.015Z,100771.86
2018-12-23T23:26:02.730Z,100763.72
2018-12-23T23:28:43.427Z,100763.16
2018-12-23T23:31:14.850Z,100766.19
2018-12-23T23:33:46.570Z,100772.87
2018-12-23T23:36:18.141Z,100776.59
2018-12-23T23:38:49.564Z,100779.37
2018-12-23T23:41:21.022Z,100782.09
2018-12-23T23:43:52.563Z,100773.32
2018-12-23T23:46:24.273Z,100775.29
2018-12-23T23:48:55.689Z,100778.52
2018-12-23T23:51:27.677Z,100777.39
2018-12-23T23:53:59.131Z,100786.65
2018-12-23T23:56:31.080Z,100790.70
2018-12-23T23:59:02.489Z,100786.98
